createdAt,value
2019-04-10T04:26:48.637Z,2976
2019-04-10T04:31:48.421Z,2976
2019-04-10T04:36:49.117Z,9561
2019-04-10T04:41:47.863Z,9561
2019-04-10T04:41:52.093Z,12126
2019-04-10T04:46:46.270Z,14243
2019-04-10T04:51:45.689Z,14243
2019-04-10T04:56:46.341Z,16164
2019-04-10T04:56:50.554Z,18552
2019-04-10T05:01:44.830Z,20919
2019-04-10T05:06:45.769Z,20919
2019-04-10T05:11:44.586Z,21101
2019-04-10T05:16:43.642Z,21343
2019-04-10T05:21:43.600Z,21378
2019-04-10T05:26:42.830Z,20664
2019-04-10T05:31:42.635Z,20178
2019-04-10T05:46:43.489Z,22836
2019-04-10T05:51:43.863Z,23268
2019-04-10T05:56:42.856Z,23931
2019-04-10T06:01:43.185Z,24460
2019-04-10T06:06:42.323Z,25004
2019-04-10T06:11:43.805Z,25503
2019-04-10T06:16:40.718Z,25703
2019-04-10T06:21:40.001Z,26319
2019-04-10T06:26:40.431Z,26710
2019-04-10T06:31:39.577Z,27114
2019-04-10T06:41:40.855Z,27667
2019-04-10T06:46:40.324Z,28130
2019-04-10T06:51:39.410Z,30051
2019-04-10T06:56:38.770Z,28948
2019-04-10T07:01:43.955Z,28721
2019-04-10T07:06:49.694Z,28503
2019-04-10T07:11:37.225Z,29141
2019-04-10T07:16:37.306Z,29959
2019-04-10T07:21:37.079Z,29860
2019-04-10T07:26:40.614Z,29571
2019-04-10T07:31:36.301Z,29198
2019-04-10T07:36:34.884Z,28458
2019-04-10T07:41:33.571Z,28127
2019-04-10T07:46:34.688Z,27987
2019-04-10T07:51:34.036Z,28209
2019-04-10T07:56:33.075Z,28524
2019-04-10T08:01:33.372Z,28890
2019-04-10T08:06:31.143Z,29611
2019-04-10T08:11:31.633Z,30670
2019-04-10T08:16:30.804Z,31982
2019-04-10T08:21:29.898Z,32679
2019-04-10T08:26:30.447Z,33393
2019-04-10T08:31:29.397Z,34263
2019-04-10T08:36:31.535Z,33826
2019-04-10T08:41:29.716Z,33869
2019-04-10T08:46:28.852Z,33979
2019-04-10T08:51:29.059Z,32740
2019-04-10T08:56:28.056Z,32461
2019-04-10T09:01:27.725Z,32379
2019-04-10T09:06:27.225Z,33215
2019-04-10T09:11:28.343Z,34319
2019-04-10T09:16:26.701Z,34446
2019-04-10T09:21:25.417Z,36097
2019-04-10T09:26:26.469Z,35294
2019-04-10T09:31:25.907Z,33700
2019-04-10T09:36:24.928Z,34469
2019-04-10T09:41:23.353Z,34528
2019-04-10T09:46:24.619Z,35187
2019-04-10T09:51:23.563Z,35377
2019-04-10T09:51:34.120Z,37498
2019-04-10T09:56:34.127Z,37396
2019-04-10T10:01:32.451Z,37396
2019-04-10T10:06:34.782Z,37033
2019-04-10T10:11:31.938Z,36802
2019-04-10T10:16:31.653Z,36745
2019-04-10T10:21:31.216Z,35046
2019-04-10T10:26:30.558Z,35413
2019-04-10T10:31:30.483Z,34693
2019-04-10T10:36:39.074Z,35954
2019-04-10T10:41:29.838Z,36463
2019-04-10T10:46:28.377Z,36665
2019-04-10T10:51:28.810Z,36471
2019-04-10T10:56:28.608Z,36105
2019-04-10T11:01:28.134Z,36482
2019-04-10T11:06:27.348Z,36336
2019-04-10T11:11:26.562Z,36304
2019-04-10T11:16:26.933Z,36574
2019-04-10T11:21:25.049Z,36384
2019-04-10T11:26:50.197Z,34577
2019-04-10T11:31:47.317Z,34577
2019-04-10T11:36:46.498Z,33869
2019-04-10T11:41:49.035Z,33889
2019-04-10T11:46:46.260Z,33855
2019-04-10T11:51:46.480Z,34787
2019-04-10T11:56:46.453Z,35208
2019-04-10T12:01:45.941Z,35230
2019-04-10T12:06:46.550Z,34866
2019-04-10T12:11:43.208Z,33789
2019-04-10T12:16:42.392Z,35353
2019-04-10T12:21:42.640Z,34104
2019-04-10T12:26:42.351Z,34140
2019-04-10T12:31:41.920Z,34354
2019-04-10T12:36:41.324Z,33247
2019-04-10T12:41:41.536Z,33130
2019-04-10T12:46:39.654Z,34094
2019-04-10T12:51:38.912Z,33788
2019-04-10T12:56:40.139Z,33363
2019-04-10T13:01:38.610Z,34194
2019-04-10T13:06:38.014Z,34445
2019-04-10T13:11:36.944Z,34236
2019-04-10T13:16:38.333Z,33691
2019-04-10T13:21:36.827Z,33037
2019-04-10T13:26:35.867Z,34020
2019-04-10T13:31:35.185Z,32251
2019-04-10T13:36:35.607Z,30732
2019-04-10T13:41:34.530Z,30554
2019-04-10T13:46:33.930Z,30342
2019-04-10T13:51:33.881Z,29619
2019-04-10T13:56:32.915Z,29405
2019-04-10T14:01:31.513Z,29680
2019-04-10T14:06:30.383Z,30482
2019-04-10T14:11:30.593Z,31004
2019-04-10T14:16:30.805Z,31564
2019-04-10T14:21:29.097Z,32223
2019-04-10T14:26:38.951Z,32054
2019-04-10T14:31:28.749Z,32451
2019-04-10T14:36:27.777Z,32718
2019-04-10T14:41:27.543Z,31610
2019-04-10T14:42:52.134Z,29585
2019-04-10T14:47:52.359Z,27284
2019-04-10T14:52:51.694Z,27284
2019-04-10T14:57:50.933Z,26054
2019-04-10T15:02:50.985Z,25859
2019-04-10T15:07:51.091Z,26530
2019-04-10T15:07:55.365Z,28564
2019-04-10T15:12:55.541Z,28550
2019-04-10T15:17:54.680Z,28857
2019-04-10T15:22:53.849Z,28996
2019-04-10T15:27:53.680Z,28805
2019-04-10T15:32:53.909Z,28649
2019-04-10T15:37:53.457Z,27756
2019-04-10T15:42:52.333Z,26998
2019-04-10T15:47:52.332Z,24461
2019-04-10T15:52:46.998Z,24461
2019-04-10T15:57:52.961Z,22609
2019-04-10T16:02:46.823Z,21894
2019-04-10T16:07:44.888Z,22049
2019-04-10T16:12:44.013Z,22058
2019-04-10T16:17:44.160Z,22712
2019-04-10T16:22:43.374Z,23472
2019-04-10T16:27:43.272Z,23666
2019-04-10T16:32:41.860Z,23709
2019-04-10T16:37:42.060Z,23060
2019-04-10T16:42:41.665Z,23114
2019-04-10T16:52:42.004Z,23007
2019-04-10T16:57:41.074Z,23208
2019-04-10T17:07:41.543Z,21989
2019-04-10T17:12:42.696Z,20492
2019-04-10T17:17:42.293Z,18526
2019-04-10T17:22:45.635Z,17650
2019-04-10T17:27:41.621Z,16838
2019-04-10T17:32:40.778Z,15180
2019-04-10T17:33:56.611Z,11392
2019-04-10T17:38:55.445Z,11392
2019-04-10T17:39:02.544Z,8485
2019-04-10T17:43:55.619Z,5986
2019-04-10T17:48:54.882Z,3211
2019-04-10T17:53:55.873Z,3211
2019-04-10T17:53:59.925Z,837
2019-04-10T17:59:00.156Z,423
